Time;durP1;ratioP1;P1;durP2;ratioP2;P2;SDS_P1;SDS_P2;PMS_P1;PMS_P2;Temp;Humidity;BMP_temperature;BMP_pressure;BME280_temperature;BME280_humidity;BME280_pressure;Samples;Min_cycle;Max_cycle;Signal;HPM_P1;HPM_P2
2021/12/09 00:01:31;;;;;;;9.18;6.53;;;;;;;;;;5070287;28;20193;-68
2021/12/09 00:03:58;;;;;;;9.65;6.82;;;;;;;;;;5070620;28;20235;-68
2021/12/09 00:06:28;;;;;;;9.98;7.05;;;;;;;;;;5076774;28;20188;-66
2021/12/09 00:08:55;;;;;;;7.95;7.15;;;;;;;;;;5082329;28;20246;-66
2021/12/09 00:11:23;;;;;;;7.60;6.68;;;;;;;;;;5082585;28;20196;-66
2021/12/09 00:13:49;;;;;;;8.77;6.82;;;;;;;;;;5082714;28;20258;-66
2021/12/09 00:16:16;;;;;;;9.07;6.97;;;;;;;;;;5075996;28;20239;-66
2021/12/09 00:18:43;;;;;;;10.07;6.85;;;;;;;;;;5062049;28;20197;-66
2021/12/09 00:21:09;;;;;;;10.60;6.80;;;;;;;;;;5061822;28;20243;-66
2021/12/09 00:23:36;;;;;;;10.65;7.07;;;;;;;;;;5062511;28;20194;-66
2021/12/09 00:26:02;;;;;;;10.88;6.97;;;;;;;;;;5065594;28;20189;-66
2021/12/09 00:28:30;;;;;;;10.35;6.22;;;;;;;;;;5082094;28;20220;-66
2021/12/09 00:30:57;;;;;;;11.43;7.20;;;;;;;;;;5082693;28;20491;-68
2021/12/09 00:33:23;;;;;;;10.40;7.32;;;;;;;;;;5082396;28;20193;-68
2021/12/09 00:35:55;;;;;;;10.88;7.07;;;;;;;;;;5065660;28;20197;-68
2021/12/09 00:38:33;;;;;;;11.93;7.55;;;;;;;;;;5077764;28;20193;-68
2021/12/09 00:40:59;;;;;;;8.00;6.82;;;;;;;;;;5085600;28;20236;-68
2021/12/09 00:43:26;;;;;;;8.75;7.15;;;;;;;;;;5086293;28;20212;-68
2021/12/09 00:45:54;;;;;;;8.30;7.13;;;;;;;;;;5083637;28;20238;-68
2021/12/09 00:48:21;;;;;;;8.18;6.88;;;;;;;;;;5066190;28;20203;-68
2021/12/09 00:50:47;;;;;;;8.27;7.30;;;;;;;;;;5066219;28;20582;-68
2021/12/09 00:53:14;;;;;;;7.60;6.57;;;;;;;;;;5061974;28;20196;-68
2021/12/09 00:55:40;;;;;;;11.88;7.72;;;;;;;;;;5081194;28;20208;-68
2021/12/09 00:58:07;;;;;;;9.00;7.25;;;;;;;;;;5061775;28;20239;-68
2021/12/09 01:00:33;;;;;;;10.27;7.22;;;;;;;;;;5061809;28;20239;-68
2021/12/09 01:03:01;;;;;;;8.63;6.57;;;;;;;;;;5063083;28;20204;-68
2021/12/09 01:05:28;;;;;;;11.10;7.10;;;;;;;;;;5063018;28;20209;-66
2021/12/09 01:07:55;;;;;;;10.98;6.38;;;;;;;;;;5080353;28;20219;-66
2021/12/09 01:10:22;;;;;;;5.93;4.00;;;;;;;;;;5081728;28;20461;-66
2021/12/09 01:12:48;;;;;;;8.20;3.60;;;;;;;;;;5081919;28;20196;-66
2021/12/09 01:15:16;;;;;;;5.03;2.75;;;;;;;;;;5081629;28;20197;-66
2021/12/09 01:17:42;;;;;;;5.68;2.35;;;;;;;;;;5065607;28;20404;-68
2021/12/09 01:20:11;;;;;;;4.40;2.47;;;;;;;;;;5074092;28;20554;-68
2021/12/09 01:22:41;;;;;;;5.50;2.47;;;;;;;;;;5085595;28;20196;-68
2021/12/09 01:25:09;;;;;;;4.20;2.28;;;;;;;;;;5084517;28;20492;-68
2021/12/09 01:27:38;;;;;;;5.82;2.10;;;;;;;;;;5066303;28;20504;-68
2021/12/09 01:30:09;;;;;;;5.15;2.17;;;;;;;;;;5065430;28;20439;-68
2021/12/09 01:32:35;;;;;;;4.60;2.45;;;;;;;;;;5068861;28;20190;-68
2021/12/09 01:35:02;;;;;;;3.88;2.67;;;;;;;;;;5067533;28;20205;-66
2021/12/09 01:37:30;;;;;;;3.42;2.38;;;;;;;;;;5082156;28;20196;-66
2021/12/09 01:39:57;;;;;;;3.25;2.10;;;;;;;;;;5085044;28;20193;-65
2021/12/09 01:42:23;;;;;;;4.38;2.42;;;;;;;;;;5084903;28;20204;-65
2021/12/09 01:44:50;;;;;;;4.20;2.25;;;;;;;;;;5084561;28;20216;-65
2021/12/09 01:47:16;;;;;;;4.72;2.72;;;;;;;;;;5083891;28;20411;-65
2021/12/09 01:49:42;;;;;;;4.25;2.60;;;;;;;;;;5084772;28;20262;-65
2021/12/09 01:52:09;;;;;;;3.13;2.58;;;;;;;;;;5085126;28;20203;-65
2021/12/09 01:54:37;;;;;;;3.90;3.33;;;;;;;;;;5084884;28;20261;-65
2021/12/09 01:57:04;;;;;;;4.47;3.33;;;;;;;;;;5067097;28;20251;-66
2021/12/09 01:59:30;;;;;;;7.22;3.30;;;;;;;;;;5064680;28;20193;-66
2021/12/09 02:01:56;;;;;;;7.22;3.40;;;;;;;;;;5064747;28;20197;-66
2021/12/09 02:04:23;;;;;;;5.03;2.83;;;;;;;;;;5064834;28;20236;-65
2021/12/09 02:06:49;;;;;;;8.60;3.67;;;;;;;;;;5079445;28;20192;-65
2021/12/09 02:09:16;;;;;;;7.13;3.40;;;;;;;;;;5084468;28;20497;-65
2021/12/09 02:11:44;;;;;;;6.53;3.13;;;;;;;;;;5084725;28;20492;-66
2021/12/09 02:14:11;;;;;;;6.82;3.50;;;;;;;;;;5070888;28;20440;-66
2021/12/09 02:16:38;;;;;;;5.88;3.58;;;;;;;;;;5076880;28;20496;-65
2021/12/09 02:19:04;;;;;;;4.20;3.80;;;;;;;;;;5084549;28;20265;-65
2021/12/09 02:21:33;;;;;;;3.90;3.60;;;;;;;;;;5084273;28;20234;-65
2021/12/09 02:24:01;;;;;;;3.35;3.05;;;;;;;;;;5084137;28;20238;-65
2021/12/09 02:26:28;;;;;;;5.20;3.50;;;;;;;;;;5073482;28;20197;-67
2021/12/09 02:28:56;;;;;;;7.38;3.60;;;;;;;;;;5079346;28;20193;-66
2021/12/09 02:31:22;;;;;;;5.38;3.55;;;;;;;;;;5086392;28;20244;-65
2021/12/09 02:33:49;;;;;;;5.72;4.13;;;;;;;;;;5083855;28;20203;-66
2021/12/09 02:36:16;;;;;;;6.18;3.75;;;;;;;;;;5080944;28;20204;-67
2021/12/09 02:38:45;;;;;;;7.75;4.35;;;;;;;;;;5065019;28;20197;-65
2021/12/09 02:41:15;;;;;;;7.68;4.72;;;;;;;;;;5074312;28;20204;-67
2021/12/09 02:43:41;;;;;;;8.80;4.82;;;;;;;;;;5083485;28;20208;-67
2021/12/09 02:46:08;;;;;;;8.20;4.28;;;;;;;;;;5077437;28;20220;-65
2021/12/09 02:48:35;;;;;;;5.53;4.22;;;;;;;;;;5063805;28;20242;-65
2021/12/09 02:51:02;;;;;;;5.00;4.18;;;;;;;;;;5065316;28;20212;-67
2021/12/09 02:53:28;;;;;;;7.45;4.47;;;;;;;;;;5066661;28;20197;-65
2021/12/09 02:55:56;;;;;;;6.30;4.43;;;;;;;;;;5077400;28;20196;-67
2021/12/09 02:58:23;;;;;;;5.97;4.70;;;;;;;;;;5070691;28;20204;-65
2021/12/09 03:00:54;;;;;;;5.13;4.72;;;;;;;;;;5065254;28;20239;-66
2021/12/09 03:03:21;;;;;;;4.90;4.60;;;;;;;;;;5066614;28;20197;-66
2021/12/09 03:05:47;;;;;;;5.07;4.68;;;;;;;;;;5069709;28;20517;-65
2021/12/09 03:08:19;;;;;;;7.10;4.80;;;;;;;;;;5080878;28;20196;-65
2021/12/09 03:10:46;;;;;;;5.47;5.05;;;;;;;;;;5063847;28;20212;-65
2021/12/09 03:13:15;;;;;;;5.85;5.35;;;;;;;;;;5063264;28;20251;-64
2021/12/09 03:15:42;;;;;;;5.47;5.07;;;;;;;;;;5068232;28;20197;-64
2021/12/09 03:18:08;;;;;;;5.80;5.30;;;;;;;;;;5083148;28;20196;-64
2021/12/09 03:20:43;;;;;;;4.90;4.50;;;;;;;;;;5083351;28;20192;-64
2021/12/09 03:23:10;;;;;;;6.28;5.35;;;;;;;;;;5083460;28;20184;-64
2021/12/09 03:25:36;;;;;;;7.55;4.80;;;;;;;;;;5076343;28;20193;-64
2021/12/09 03:28:03;;;;;;;5.72;5.22;;;;;;;;;;5063323;28;20501;-64
2021/12/09 03:30:31;;;;;;;6.15;5.15;;;;;;;;;;5062915;28;20224;-64
2021/12/09 03:32:57;;;;;;;5.20;4.70;;;;;;;;;;5068675;28;20193;-67
2021/12/09 03:35:24;;;;;;;5.32;4.95;;;;;;;;;;5081989;28;20509;-64
2021/12/09 03:37:50;;;;;;;6.38;5.82;;;;;;;;;;5083062;28;20404;-64
2021/12/09 03:40:16;;;;;;;8.48;5.85;;;;;;;;;;5071519;28;20386;-65
2021/12/09 03:42:44;;;;;;;5.80;5.28;;;;;;;;;;5065418;28;20192;-65
2021/12/09 03:45:11;;;;;;;6.13;5.63;;;;;;;;;;5082426;28;20216;-65
2021/12/09 03:47:39;;;;;;;5.82;5.43;;;;;;;;;;5082317;28;20206;-67
2021/12/09 03:50:06;;;;;;;6.40;5.80;;;;;;;;;;5082654;28;20227;-67
2021/12/09 03:52:33;;;;;;;6.07;5.55;;;;;;;;;;5081429;28;20496;-65
2021/12/09 03:55:02;;;;;;;6.00;5.40;;;;;;;;;;5062510;28;20527;-65
2021/12/09 03:57:28;;;;;;;6.53;5.75;;;;;;;;;;5062654;28;20204;-67
2021/12/09 03:59:54;;;;;;;5.72;5.22;;;;;;;;;;5062738;28;20193;-67
2021/12/09 04:02:21;;;;;;;6.18;4.93;;;;;;;;;;5062650;28;20532;-65
2021/12/09 04:04:49;;;;;;;6.63;5.78;;;;;;;;;;5066011;28;20197;-65
2021/12/09 04:07:15;;;;;;;6.80;5.55;;;;;;;;;;5071021;28;20192;-67
2021/12/09 04:09:42;;;;;;;6.22;5.55;;;;;;;;;;5086462;28;20196;-65
2021/12/09 04:12:09;;;;;;;6.25;5.47;;;;;;;;;;5082519;28;20196;-65
2021/12/09 04:14:36;;;;;;;5.68;5.25;;;;;;;;;;5071969;28;20232;-65
2021/12/09 04:17:03;;;;;;;5.70;5.25;;;;;;;;;;5062185;28;20450;-65
2021/12/09 04:19:29;;;;;;;5.85;5.45;;;;;;;;;;5062565;28;20197;-65
2021/12/09 04:21:57;;;;;;;7.97;5.50;;;;;;;;;;5062264;28;20216;-65
2021/12/09 04:24:23;;;;;;;7.18;5.93;;;;;;;;;;5070105;28;20200;-65
2021/12/09 04:26:51;;;;;;;6.18;5.60;;;;;;;;;;5082345;28;20203;-65
2021/12/09 04:29:18;;;;;;;6.03;5.60;;;;;;;;;;5079501;28;20296;-64
2021/12/09 04:31:47;;;;;;;6.05;5.55;;;;;;;;;;5062058;28;20221;-65
2021/12/09 04:34:14;;;;;;;6.75;6.07;;;;;;;;;;5062360;28;20201;-65
2021/12/09 04:36:40;;;;;;;6.18;5.68;;;;;;;;;;5080957;28;20196;-65
2021/12/09 04:39:08;;;;;;;6.35;5.75;;;;;;;;;;5081366;28;20196;-65
2021/12/09 04:41:35;;;;;;;6.28;5.68;;;;;;;;;;5061890;28;20201;-65
2021/12/09 04:44:01;;;;;;;6.78;6.20;;;;;;;;;;5062062;28;20205;-65
2021/12/09 04:46:28;;;;;;;6.68;6.13;;;;;;;;;;5061589;28;20240;-65
2021/12/09 04:48:54;;;;;;;9.13;6.50;;;;;;;;;;5061967;28;20197;-65
2021/12/09 04:51:20;;;;;;;7.88;7.10;;;;;;;;;;5080380;28;20216;-65
2021/12/09 04:53:47;;;;;;;9.32;6.68;;;;;;;;;;5081881;28;20196;-65
2021/12/09 04:56:15;;;;;;;9.38;6.30;;;;;;;;;;5081756;28;20505;-67
2021/12/09 04:58:41;;;;;;;7.13;6.43;;;;;;;;;;5082286;28;20204;-67
2021/12/09 05:01:08;;;;;;;7.20;6.47;;;;;;;;;;5065600;28;20376;-67
2021/12/09 05:03:34;;;;;;;6.88;6.20;;;;;;;;;;5062999;28;20231;-67
2021/12/09 05:06:01;;;;;;;7.30;6.57;;;;;;;;;;5063175;28;20197;-65
2021/12/09 05:08:28;;;;;;;7.57;6.97;;;;;;;;;;5065854;28;20518;-65
2021/12/09 05:11:01;;;;;;;7.38;6.65;;;;;;;;;;5079504;28;20208;-65
2021/12/09 05:13:30;;;;;;;8.02;6.32;;;;;;;;;;5085919;28;20219;-65
2021/12/09 05:15:57;;;;;;;7.57;6.78;;;;;;;;;;5085281;28;20242;-65
2021/12/09 05:18:24;;;;;;;7.40;6.70;;;;;;;;;;5085663;28;20424;-65
2021/12/09 05:20:51;;;;;;;7.00;6.38;;;;;;;;;;5071910;28;20381;-65
2021/12/09 05:23:19;;;;;;;7.32;6.72;;;;;;;;;;5065525;28;20264;-67
2021/12/09 05:25:46;;;;;;;7.90;7.10;;;;;;;;;;5069161;28;20197;-68
2021/12/09 05:28:15;;;;;;;7.10;6.40;;;;;;;;;;5069990;28;20501;-68
2021/12/09 05:33:23;;;;;;;9.82;6.95;;;;;;;;;;5087197;28;20192;-66
2021/12/09 05:35:50;;;;;;;7.72;6.47;;;;;;;;;;5085279;28;20203;-66
2021/12/09 05:38:16;;;;;;;8.13;6.38;;;;;;;;;;5085360;28;20496;-66
2021/12/09 05:40:43;;;;;;;10.18;6.75;;;;;;;;;;5084292;28;20196;-65
2021/12/09 05:43:09;;;;;;;6.72;6.13;;;;;;;;;;5085082;28;20230;-66
2021/12/09 05:45:35;;;;;;;10.05;6.25;;;;;;;;;;5085030;28;20223;-66
2021/12/09 05:48:04;;;;;;;6.85;6.18;;;;;;;;;;5085111;28;20306;-66
2021/12/09 05:50:30;;;;;;;9.52;6.38;;;;;;;;;;5067115;28;20584;-68
2021/12/09 05:52:57;;;;;;;8.68;6.82;;;;;;;;;;5064898;28;20204;-68
2021/12/09 05:55:23;;;;;;;9.07;7.47;;;;;;;;;;5064878;28;20519;-68
2021/12/09 05:57:50;;;;;;;9.98;6.88;;;;;;;;;;5064838;28;20243;-68
2021/12/09 06:00:17;;;;;;;8.52;6.28;;;;;;;;;;5080425;28;20203;-68
2021/12/09 06:02:43;;;;;;;7.72;6.55;;;;;;;;;;5084606;28;20204;-68
2021/12/09 06:05:11;;;;;;;8.95;6.80;;;;;;;;;;5084427;28;20205;-68
2021/12/09 06:07:37;;;;;;;6.80;6.07;;;;;;;;;;5071051;28;20204;-68
2021/12/09 06:10:05;;;;;;;7.10;6.40;;;;;;;;;;5078412;28;20193;-68
2021/12/09 06:12:32;;;;;;;10.57;5.93;;;;;;;;;;5084562;28;20223;-68
2021/12/09 06:14:59;;;;;;;7.07;6.13;;;;;;;;;;5084243;28;20223;-68
2021/12/09 06:17:26;;;;;;;9.27;6.82;;;;;;;;;;5083413;28;20385;-68
2021/12/09 06:19:52;;;;;;;9.55;6.57;;;;;;;;;;5072417;28;20382;-66
2021/12/09 06:22:20;;;;;;;9.32;7.18;;;;;;;;;;5064417;28;20239;-65
2021/12/09 06:24:46;;;;;;;12.13;7.22;;;;;;;;;;5064210;28;20206;-66
2021/12/09 06:27:13;;;;;;;11.45;8.15;;;;;;;;;;5064399;28;20551;-66
2021/12/09 06:29:40;;;;;;;8.68;7.72;;;;;;;;;;5074099;28;20264;-66
2021/12/09 06:32:07;;;;;;;11.40;7.70;;;;;;;;;;5083764;28;20216;-66
2021/12/09 06:34:33;;;;;;;10.23;7.32;;;;;;;;;;5076787;28;20198;-66
2021/12/09 06:37:00;;;;;;;10.45;7.15;;;;;;;;;;5064031;28;20197;-65
2021/12/09 06:39:28;;;;;;;11.10;7.40;;;;;;;;;;5071852;28;20188;-65
2021/12/09 06:41:54;;;;;;;10.70;7.15;;;;;;;;;;5083840;28;20522;-67
2021/12/09 06:44:21;;;;;;;8.40;6.78;;;;;;;;;;5083731;28;20197;-67
2021/12/09 06:46:47;;;;;;;7.20;6.50;;;;;;;;;;5077196;28;20201;-67
2021/12/09 06:49:14;;;;;;;9.98;6.47;;;;;;;;;;5063877;28;20536;-67
2021/12/09 06:51:40;;;;;;;11.63;6.47;;;;;;;;;;5063998;28;20213;-68
2021/12/09 06:54:06;;;;;;;8.65;5.70;;;;;;;;;;5063991;28;20196;-67
2021/12/09 06:56:35;;;;;;;7.93;5.30;;;;;;;;;;5064589;28;20370;-67
2021/12/09 06:59:02;;;;;;;8.45;5.60;;;;;;;;;;5063554;28;20201;-68
2021/12/09 07:01:28;;;;;;;11.07;5.68;;;;;;;;;;5063906;28;20193;-69
2021/12/09 07:03:55;;;;;;;6.65;5.18;;;;;;;;;;5083675;28;20219;-69
2021/12/09 07:06:21;;;;;;;7.43;5.57;;;;;;;;;;5077522;28;20189;-69
2021/12/09 07:08:49;;;;;;;9.93;5.75;;;;;;;;;;5064178;28;20220;-69
2021/12/09 07:11:17;;;;;;;11.07;5.65;;;;;;;;;;5063350;28;20267;-67
2021/12/09 07:13:45;;;;;;;10.10;5.07;;;;;;;;;;5063230;28;20196;-67
2021/12/09 07:16:12;;;;;;;9.10;5.30;;;;;;;;;;5064060;28;20197;-67
2021/12/09 07:18:40;;;;;;;8.68;5.05;;;;;;;;;;5063121;28;20205;-55
2021/12/09 07:21:07;;;;;;;5.72;5.20;;;;;;;;;;5061549;28;20192;-54
2021/12/09 07:23:34;;;;;;;8.27;5.80;;;;;;;;;;5065579;28;20220;-55
2021/12/09 07:26:01;;;;;;;10.88;7.03;;;;;;;;;;5073493;28;20204;-54
2021/12/09 07:28:28;;;;;;;9.38;6.10;;;;;;;;;;5076594;28;20246;-54
2021/12/09 07:30:55;;;;;;;8.48;5.72;;;;;;;;;;5063057;28;20209;-58
2021/12/09 07:33:22;;;;;;;13.35;5.25;;;;;;;;;;5080698;28;20212;-56
2021/12/09 07:35:48;;;;;;;9.80;4.95;;;;;;;;;;5062503;28;20213;-53
2021/12/09 07:38:15;;;;;;;8.05;4.32;;;;;;;;;;5057811;28;20525;-53
2021/12/09 07:40:41;;;;;;;6.97;4.20;;;;;;;;;;5068584;28;20387;-58
2021/12/09 07:43:08;;;;;;;8.15;3.97;;;;;;;;;;5076754;28;20512;-52
2021/12/09 07:45:34;;;;;;;9.13;3.58;;;;;;;;;;5073537;28;20253;-54
2021/12/09 07:48:02;;;;;;;11.30;4.05;;;;;;;;;;5075587;28;20232;-54
2021/12/09 07:50:31;;;;;;;9.60;3.88;;;;;;;;;;5075161;28;20413;-55
2021/12/09 07:52:58;;;;;;;6.00;3.10;;;;;;;;;;5074865;28;20224;-54
2021/12/09 07:55:25;;;;;;;9.05;3.45;;;;;;;;;;5074423;28;20412;-54
2021/12/09 07:57:52;;;;;;;5.93;3.40;;;;;;;;;;5060804;28;20213;-55
2021/12/09 08:00:19;;;;;;;8.55;4.00;;;;;;;;;;5056476;28;20235;-54
2021/12/09 08:02:46;;;;;;;11.30;4.00;;;;;;;;;;5055941;28;20205;-53
2021/12/09 08:05:15;;;;;;;6.28;4.07;;;;;;;;;;5069027;28;20528;-54
2021/12/09 08:07:42;;;;;;;5.60;3.88;;;;;;;;;;5076593;28;20386;-58
2021/12/09 08:10:09;;;;;;;8.63;4.40;;;;;;;;;;5067502;28;20517;-58
2021/12/09 08:12:36;;;;;;;9.15;4.60;;;;;;;;;;5056788;28;20408;-59
2021/12/09 08:15:02;;;;;;;10.55;5.40;;;;;;;;;;5064335;28;20247;-58
2021/12/09 08:17:45;;;;;;;10.77;6.43;;;;;;;;;;5064403;28;20216;-55
2021/12/09 08:20:13;;;;;;;12.98;7.57;;;;;;;;;;5059900;28;20212;-53
2021/12/09 08:22:41;;;;;;;11.65;6.55;;;;;;;;;;5055828;28;20236;-54
2021/12/09 08:25:08;;;;;;;13.13;6.45;;;;;;;;;;5054662;28;20288;-54
2021/12/09 08:27:35;;;;;;;16.55;6.78;;;;;;;;;;5055053;28;20262;-55
2021/12/09 08:30:04;;;;;;;10.30;6.55;;;;;;;;;;5071386;28;20354;-55
2021/12/09 08:32:31;;;;;;;12.43;6.30;;;;;;;;;;5076236;28;20286;-58
2021/12/09 08:34:58;;;;;;;15.48;6.50;;;;;;;;;;5074793;28;20208;-58
2021/12/09 08:37:24;;;;;;;15.60;6.45;;;;;;;;;;5075545;28;20426;-58
2021/12/09 08:39:52;;;;;;;9.75;6.05;;;;;;;;;;5063066;28;20216;-58
2021/12/09 08:42:19;;;;;;;11.50;5.22;;;;;;;;;;5064564;28;20208;-57
2021/12/09 08:44:45;;;;;;;13.32;5.90;;;;;;;;;;5077324;28;20286;-59
2021/12/09 08:47:11;;;;;;;9.00;5.63;;;;;;;;;;5065597;28;20314;-57
2021/12/09 08:49:38;;;;;;;11.70;5.00;;;;;;;;;;5065915;28;20209;-57
2021/12/09 08:52:05;;;;;;;10.80;3.53;;;;;;;;;;5081142;28;20228;-56
2021/12/09 08:54:31;;;;;;;10.68;3.55;;;;;;;;;;5079006;28;20208;-61
2021/12/09 08:57:03;;;;;;;9.38;3.55;;;;;;;;;;5078031;28;20215;-59
2021/12/09 08:59:30;;;;;;;7.03;3.40;;;;;;;;;;5079687;28;20208;-59
2021/12/09 09:01:56;;;;;;;9.32;3.78;;;;;;;;;;5078992;28;20417;-60
2021/12/09 09:04:22;;;;;;;13.80;4.50;;;;;;;;;;5078425;28;20209;-59
2021/12/09 09:06:51;;;;;;;7.45;3.50;;;;;;;;;;5079964;28;20391;-59
2021/12/09 09:09:17;;;;;;;5.85;3.10;;;;;;;;;;5080287;28;20216;-59
2021/12/09 09:11:43;;;;;;;7.43;3.17;;;;;;;;;;5079752;28;20281;-59
2021/12/09 09:14:11;;;;;;;6.32;3.38;;;;;;;;;;5078184;28;20206;-58
2021/12/09 09:16:38;;;;;;;3.30;3.10;;;;;;;;;;5072611;28;20212;-59
2021/12/09 09:19:05;;;;;;;9.20;3.20;;;;;;;;;;5060099;28;20201;-58
2021/12/09 09:21:32;;;;;;;7.65;3.33;;;;;;;;;;5060251;28;20739;-59
2021/12/09 09:23:58;;;;;;;7.00;3.50;;;;;;;;;;5064256;28;20211;-59
2021/12/09 09:26:24;;;;;;;5.50;3.05;;;;;;;;;;5079109;28;20209;-60
2021/12/09 09:28:51;;;;;;;7.30;3.38;;;;;;;;;;5078864;28;20208;-60
2021/12/09 09:31:20;;;;;;;8.73;3.20;;;;;;;;;;5078671;28;20523;-60
2021/12/09 09:33:47;;;;;;;7.22;3.15;;;;;;;;;;5074158;28;20209;-59
2021/12/09 09:36:13;;;;;;;6.15;3.45;;;;;;;;;;5059021;28;20217;-60
2021/12/09 09:38:40;;;;;;;9.20;3.47;;;;;;;;;;5058893;28;20255;-59
2021/12/09 09:41:09;;;;;;;5.78;3.88;;;;;;;;;;5078175;28;20287;-59
2021/12/09 09:43:56;;;;;;;10.70;3.85;;;;;;;;;;5068252;28;20217;-60
2021/12/09 09:46:26;;;;;;;5.38;3.47;;;;;;;;;;5059720;28;20225;-59
2021/12/09 09:48:53;;;;;;;3.97;3.40;;;;;;;;;;5078878;28;20216;-60
2021/12/09 09:51:20;;;;;;;6.57;3.65;;;;;;;;;;5076816;28;20212;-60
2021/12/09 09:53:47;;;;;;;5.22;3.47;;;;;;;;;;5079216;28;20204;-60
2021/12/09 09:56:18;;;;;;;4.88;3.65;;;;;;;;;;5080144;28;20216;-60
2021/12/09 09:58:46;;;;;;;4.82;3.42;;;;;;;;;;5081301;28;20212;-60
2021/12/09 10:01:13;;;;;;;8.85;4.32;;;;;;;;;;5077631;28;20387;-60
2021/12/09 10:03:43;;;;;;;4.80;3.75;;;;;;;;;;5077900;28;20208;-60
2021/12/09 10:06:09;;;;;;;12.10;4.70;;;;;;;;;;5079429;28;20208;-59
2021/12/09 10:08:36;;;;;;;7.95;4.00;;;;;;;;;;5062920;28;20216;-60
2021/12/09 10:11:05;;;;;;;4.72;3.95;;;;;;;;;;5074674;28;20405;-59
2021/12/09 10:13:34;;;;;;;5.82;3.72;;;;;;;;;;5061185;28;20224;-59
2021/12/09 10:16:01;;;;;;;5.55;3.60;;;;;;;;;;5058653;28;20209;-60
2021/12/09 10:18:38;;;;;;;5.30;3.85;;;;;;;;;;5058881;28;20236;-59
2021/12/09 10:21:06;;;;;;;6.20;3.85;;;;;;;;;;5073110;28;20524;-59
2021/12/09 10:23:35;;;;;;;6.25;4.20;;;;;;;;;;5062438;28;20234;-59
2021/12/09 10:26:11;;;;;;;6.88;3.72;;;;;;;;;;5059323;28;20209;-59
2021/12/09 10:28:37;;;;;;;6.22;3.88;;;;;;;;;;5058583;28;20424;-59
2021/12/09 10:31:14;;;;;;;6.45;3.95;;;;;;;;;;5060819;28;20240;-59
2021/12/09 10:34:14;;;;;;;7.22;3.80;;;;;;;;;;5059270;28;20428;-60
2021/12/09 10:36:44;;;;;;;7.72;4.35;;;;;;;;;;5077955;28;20208;-59
2021/12/09 10:39:18;;;;;;;8.18;4.10;;;;;;;;;;5078860;28;20208;-60
2021/12/09 10:41:45;;;;;;;6.82;4.30;;;;;;;;;;5072065;28;20216;-59
2021/12/09 10:44:12;;;;;;;6.95;3.92;;;;;;;;;;5059037;28;20255;-58
2021/12/09 10:46:50;;;;;;;5.25;4.75;;;;;;;;;;5057919;28;20225;-62
2021/12/09 10:49:18;;;;;;;11.00;4.00;;;;;;;;;;5065462;28;20196;-59
2021/12/09 10:51:56;;;;;;;9.18;4.15;;;;;;;;;;5079328;28;20348;-59
2021/12/09 10:54:35;;;;;;;4.40;3.97;;;;;;;;;;5059499;28;20378;-60
2021/12/09 10:57:17;;;;;;;5.65;4.20;;;;;;;;;;5058414;28;20215;-59
2021/12/09 10:59:43;;;;;;;5.22;3.88;;;;;;;;;;5059554;28;20216;-60
2021/12/09 11:02:09;;;;;;;5.07;3.67;;;;;;;;;;5061315;28;20196;-59
2021/12/09 11:04:36;;;;;;;8.52;4.10;;;;;;;;;;5075300;28;20689;-60
2021/12/09 11:07:17;;;;;;;7.45;3.65;;;;;;;;;;5081051;28;20227;-59
2021/12/09 11:09:45;;;;;;;5.57;3.83;;;;;;;;;;5078527;28;20208;-59
2021/12/09 11:12:26;;;;;;;8.80;4.22;;;;;;;;;;5078255;28;20224;-60
2021/12/09 11:14:59;;;;;;;5.28;4.18;;;;;;;;;;5078333;28;20465;-59
2021/12/09 11:17:33;;;;;;;6.63;4.10;;;;;;;;;;5065068;28;20251;-59
2021/12/09 11:20:00;;;;;;;6.53;3.63;;;;;;;;;;5059174;28;20574;-60
2021/12/09 11:22:31;;;;;;;8.82;4.32;;;;;;;;;;5078388;28;20212;-60
2021/12/09 11:25:03;;;;;;;6.43;4.28;;;;;;;;;;5076983;28;20205;-60
2021/12/09 11:27:30;;;;;;;8.05;4.07;;;;;;;;;;5073111;28;20209;-60
2021/12/09 11:30:08;;;;;;;8.43;3.92;;;;;;;;;;5058437;28;20327;-59
2021/12/09 11:32:41;;;;;;;7.97;3.60;;;;;;;;;;5072184;28;20445;-59
2021/12/09 11:35:13;;;;;;;4.80;3.40;;;;;;;;;;5071798;28;20581;-59
2021/12/09 11:37:44;;;;;;;6.13;3.65;;;;;;;;;;5068109;28;20407;-60
2021/12/09 11:40:15;;;;;;;7.47;4.10;;;;;;;;;;5077078;28;20399;-61
2021/12/09 11:42:46;;;;;;;6.82;3.38;;;;;;;;;;5060957;28;20243;-61
2021/12/09 11:45:14;;;;;;;3.72;3.38;;;;;;;;;;5090172;28;20224;-60
2021/12/09 11:47:42;;;;;;;4.68;2.83;;;;;;;;;;5101787;28;20204;-59
2021/12/09 11:50:10;;;;;;;2.88;2.67;;;;;;;;;;5101904;28;20457;-59
2021/12/09 11:52:38;;;;;;;4.72;2.80;;;;;;;;;;5074555;28;20221;-59
2021/12/09 11:55:06;;;;;;;3.70;2.70;;;;;;;;;;5094077;28;20231;-59
2021/12/09 11:57:38;;;;;;;5.78;2.78;;;;;;;;;;5060820;28;20231;-59
2021/12/09 12:11:53;;;;;;;5.68;2.80;;;;;;;;;;5042376;28;20200;-59
2021/12/09 12:14:32;;;;;;;4.63;2.55;;;;;;;;;;5060132;28;20300;-59
2021/12/09 12:17:08;;;;;;;4.15;3.03;;;;;;;;;;5068901;28;20227;-58
2021/12/09 12:20:01;;;;;;;4.30;2.65;;;;;;;;;;5077371;28;20200;-59
2021/12/09 12:22:44;;;;;;;7.50;2.95;;;;;;;;;;5060397;28;20502;-59
2021/12/09 12:25:35;;;;;;;2.53;2.25;;;;;;;;;;5060246;28;20209;-59
2021/12/09 12:28:22;;;;;;;9.13;2.30;;;;;;;;;;5060241;28;20487;-59
2021/12/09 12:31:12;;;;;;;7.18;2.03;;;;;;;;;;5064746;28;20212;-59
2021/12/09 12:34:07;;;;;;;7.45;2.40;;;;;;;;;;5060679;28;20472;-59
2021/12/09 12:40:05;;;;;;;3.17;2.15;;;;;;;;;;5020460;28;20194;-59
2021/12/09 12:42:45;;;;;;;4.57;2.22;;;;;;;;;;5080309;28;20212;-59
2021/12/09 12:45:18;;;;;;;5.93;2.50;;;;;;;;;;5077497;28;20393;-59
2021/12/09 12:47:54;;;;;;;9.93;2.22;;;;;;;;;;5059943;28;20193;-60
2021/12/09 12:50:22;;;;;;;4.22;1.70;;;;;;;;;;5071684;28;20188;-59
2021/12/09 12:52:48;;;;;;;4.28;2.10;;;;;;;;;;5078706;28;20273;-60
2021/12/09 12:55:16;;;;;;;6.72;2.83;;;;;;;;;;5078511;28;20204;-59
2021/12/09 12:57:45;;;;;;;4.05;2.03;;;;;;;;;;5078941;28;20211;-59
2021/12/09 13:00:14;;;;;;;3.88;1.98;;;;;;;;;;5075110;28;20201;-60
2021/12/09 13:03:09;;;;;;;3.58;2.00;;;;;;;;;;5076121;28;20522;-59
2021/12/09 13:06:00;;;;;;;4.75;2.38;;;;;;;;;;5079973;28;20251;-59
2021/12/09 13:08:49;;;;;;;5.45;1.98;;;;;;;;;;5079197;28;20189;-60
2021/12/09 13:11:23;;;;;;;3.22;1.90;;;;;;;;;;5080149;28;20439;-59
2021/12/09 13:13:58;;;;;;;5.88;2.10;;;;;;;;;;5078770;28;20215;-59
2021/12/09 13:16:36;;;;;;;2.60;1.70;;;;;;;;;;5066047;28;20251;-59
2021/12/09 13:19:10;;;;;;;4.93;1.60;;;;;;;;;;5072258;28;20201;-59
2021/12/09 13:21:46;;;;;;;4.78;2.05;;;;;;;;;;5065780;28;20220;-60
2021/12/09 13:24:25;;;;;;;8.77;1.90;;;;;;;;;;5077350;28;20196;-59
2021/12/09 13:27:19;;;;;;;6.50;1.45;;;;;;;;;;5081067;28;20577;-58
2021/12/09 13:29:54;;;;;;;2.60;1.70;;;;;;;;;;5079397;28;20238;-59
2021/12/09 13:32:46;;;;;;;3.60;2.15;;;;;;;;;;5081277;28;20193;-60
2021/12/09 13:35:17;;;;;;;6.47;1.92;;;;;;;;;;5061794;28;20205;-59
2021/12/09 13:38:13;;;;;;;5.45;1.77;;;;;;;;;;5067570;28;20375;-60
2021/12/09 13:46:23;;;;;;;7.88;1.90;;;;;;;;;;5050039;28;20533;-60
2021/12/09 13:48:57;;;;;;;4.55;2.08;;;;;;;;;;5065866;28;20528;-60
2021/12/09 13:51:40;;;;;;;5.70;1.92;;;;;;;;;;5081642;28;20527;-60
2021/12/09 13:54:18;;;;;;;8.00;2.40;;;;;;;;;;5069386;28;20213;-61
2021/12/09 13:56:45;;;;;;;5.88;2.63;;;;;;;;;;5060941;28;20439;-60
2021/12/09 13:59:15;;;;;;;4.88;1.85;;;;;;;;;;5062072;28;20592;-59
2021/12/09 14:01:41;;;;;;;5.88;2.72;;;;;;;;;;5061470;28;20528;-60
2021/12/09 14:04:08;;;;;;;6.40;2.95;;;;;;;;;;5061570;28;20208;-60
2021/12/09 14:06:34;;;;;;;7.90;3.38;;;;;;;;;;5076288;28;20471;-60
2021/12/09 14:09:01;;;;;;;7.32;3.72;;;;;;;;;;5081919;28;20241;-59
2021/12/09 14:11:34;;;;;;;10.05;3.85;;;;;;;;;;5079821;28;20211;-60
2021/12/09 14:14:05;;;;;;;8.18;3.50;;;;;;;;;;5065190;28;20226;-60
2021/12/09 14:16:43;;;;;;;5.30;3.47;;;;;;;;;;5067512;28;20224;-60
2021/12/09 14:21:54;;;;;;;14.32;4.90;;;;;;;;;;5081316;28;20279;-58
2021/12/09 14:24:23;;;;;;;12.63;5.22;;;;;;;;;;5061007;28;20232;-59
2021/12/09 14:26:52;;;;;;;15.05;6.13;;;;;;;;;;5060564;28;20201;-59
2021/12/09 14:29:19;;;;;;;6.55;4.78;;;;;;;;;;5071348;28;20208;-61
2021/12/09 14:31:46;;;;;;;8.93;5.53;;;;;;;;;;5080609;28;20205;-60
2021/12/09 14:34:13;;;;;;;12.50;5.85;;;;;;;;;;5062997;28;20229;-59
2021/12/09 14:36:40;;;;;;;14.68;6.25;;;;;;;;;;5080032;28;20205;-60
2021/12/09 14:39:07;;;;;;;10.48;5.47;;;;;;;;;;5079487;28;20220;-60
2021/12/09 14:41:35;;;;;;;18.23;5.70;;;;;;;;;;5066415;28;20533;-59
2021/12/09 14:44:04;;;;;;;13.38;5.68;;;;;;;;;;5061502;28;20201;-59
2021/12/09 14:46:36;;;;;;;11.15;5.15;;;;;;;;;;5074279;28;20525;-60
2021/12/09 14:49:13;;;;;;;14.57;5.43;;;;;;;;;;5079147;28;20276;-59
2021/12/09 14:51:42;;;;;;;8.40;4.50;;;;;;;;;;5060942;28;20201;-59
2021/12/09 14:54:09;;;;;;;7.50;4.57;;;;;;;;;;5074562;28;20375;-60
2021/12/09 14:56:37;;;;;;;11.38;4.80;;;;;;;;;;5076997;28;20536;-60
2021/12/09 14:59:19;;;;;;;9.45;4.80;;;;;;;;;;5077734;28;20235;-61
2021/12/09 15:01:47;;;;;;;12.20;4.20;;;;;;;;;;5074220;28;20237;-59
2021/12/09 15:04:17;;;;;;;11.18;4.82;;;;;;;;;;5069840;28;20395;-59
2021/12/09 15:06:53;;;;;;;10.48;4.78;;;;;;;;;;5059470;28;20232;-58
2021/12/09 15:09:20;;;;;;;9.00;4.40;;;;;;;;;;5060472;28;20262;-59
2021/12/09 15:11:48;;;;;;;8.63;4.32;;;;;;;;;;5065030;28;20247;-59
2021/12/09 15:14:16;;;;;;;8.50;4.47;;;;;;;;;;5064094;28;20228;-59
2021/12/09 15:16:44;;;;;;;8.85;4.22;;;;;;;;;;5061074;28;20219;-58
2021/12/09 15:19:17;;;;;;;11.25;4.22;;;;;;;;;;5064642;28;20262;-59